EGSH

Norwich International Airport

Norwich, United Kingdom
METAR EGSH 190550Z 16007KT CAVOK 01/M00 Q1012
Observed Flight Rules
Jan-19 @ 05:50 UTC (29 minutes ago) Visual Flight Rules
Wind Visibility Clouds
160° at 7 knots 10,000+ meters
  • Clear skies
Temperatures Readings
Current 1°C / 34°F
Dewpoint 0°C / 32°F
Humidity 93%
Altimeter 29.88" Hg
Pressure 1011.92 hPa
Elevation 36
METAR EGSH 190550Z 16007KT CAVOK 01/M00 Q1012
Observed Flight Rules
Jan-19 @ 05:50 UTC
(29 minutes ago)
VFR
Wind Visibility
160° at 7 knots 10,000+ meters
Clouds
  • Clear skies
Temperature Dewpoint
1°C / 34°F 0°C / 32°F
Humidity Altimeter Pressure
93% 29.88" Hg 1011.92 hPa